Time;durP1;ratioP1;P1;durP2;ratioP2;P2;SDS_P1;SDS_P2;PMS_P1;PMS_P2;Temp;Humidity;BMP_temperature;BMP_pressure;BME280_temperature;BME280_humidity;BME280_pressure;Samples;Min_cycle;Max_cycle;Signal;HPM_P1;HPM_P2
2022/03/24 00:00:00;;;;;;;317.50;106.20;;;;;;;0.96;48.44;99634.20;107439;1284;22557;-75
2022/03/24 00:02:27;;;;;;;320.10;106.50;;;;;;;0.89;47.94;99636.30;107448;1284;22735;-79
2022/03/24 00:04:54;;;;;;;325.00;111.90;;;;;;;0.83;47.87;99637.57;107442;1284;22558;-81
2022/03/24 00:07:22;;;;;;;297.40;102.80;;;;;;;0.76;48.35;99634.38;107459;1285;22546;-73
2022/03/24 00:09:50;;;;;;;290.10;101.10;;;;;;;0.67;48.63;99638.92;107487;1285;24353;-72
2022/03/24 00:12:17;;;;;;;304.10;102.00;;;;;;;0.59;49.55;99634.03;107452;1284;22556;-72
2022/03/24 00:14:45;;;;;;;307.00;107.20;;;;;;;0.53;50.30;99634.79;107428;1285;22654;-70
2022/03/24 00:17:12;;;;;;;300.60;108.30;;;;;;;0.49;50.70;99631.89;107419;1285;22570;-76
2022/03/24 00:19:39;;;;;;;273.40;95.30;;;;;;;0.47;50.14;99627.45;107423;1285;22718;-74
2022/03/24 00:22:06;;;;;;;266.50;94.50;;;;;;;0.47;50.12;99630.36;107446;1285;22600;-82
2022/03/24 00:24:33;;;;;;;244.00;89.00;;;;;;;0.47;49.43;99624.88;107450;1285;23731;-71
2022/03/24 00:27:00;;;;;;;199.70;76.30;;;;;;;0.48;49.52;99619.39;107413;1285;23362;-77
2022/03/24 00:29:27;;;;;;;188.30;67.20;;;;;;;0.49;49.21;99615.27;107434;1285;27801;-76
2022/03/24 00:31:54;;;;;;;178.20;65.60;;;;;;;0.49;49.29;99614.41;107441;1285;22637;-75
2022/03/24 00:34:21;;;;;;;207.40;75.60;;;;;;;0.50;48.99;99615.09;107427;1285;22664;-76
2022/03/24 00:36:48;;;;;;;224.40;82.60;;;;;;;0.49;48.94;99614.23;107424;1284;22566;-78
2022/03/24 00:39:15;;;;;;;229.30;83.20;;;;;;;0.50;48.99;99609.78;107447;1285;22694;-70
2022/03/24 00:41:43;;;;;;;211.20;74.40;;;;;;;0.50;49.35;99614.58;107404;1285;25265;-71
2022/03/24 00:44:11;;;;;;;225.00;76.00;;;;;;;0.47;49.22;99612.20;107403;1285;22689;-72
2022/03/24 00:46:38;;;;;;;177.00;63.20;;;;;;;0.45;49.29;99609.64;107410;1285;23138;-83
2022/03/24 00:49:05;;;;;;;164.40;60.90;;;;;;;0.45;49.34;99609.48;107433;1285;22578;-76
2022/03/24 00:51:33;;;;;;;150.30;57.70;;;;;;;0.44;49.33;99610.53;107421;1285;23093;-79
2022/03/24 00:54:00;;;;;;;158.90;59.40;;;;;;;0.42;49.21;99610.70;107399;1285;22645;-70
2022/03/24 00:56:27;;;;;;;148.20;55.20;;;;;;;0.40;49.28;99607.64;107402;1285;22581;-71
2022/03/24 00:58:55;;;;;;;149.60;55.10;;;;;;;0.40;49.31;99606.95;107450;1285;23205;-72
2022/03/24 01:01:22;;;;;;;121.20;47.80;;;;;;;0.40;50.12;99605.92;107465;1285;22599;-71
2022/03/24 01:03:49;;;;;;;135.50;51.80;;;;;;;0.38;50.51;99609.19;107432;1285;22814;-79
2022/03/24 01:06:17;;;;;;;165.90;63.60;;;;;;;0.37;49.85;99608.85;107444;1285;22815;-71
2022/03/24 01:08:44;;;;;;;150.90;57.80;;;;;;;0.37;49.46;99607.82;107455;1285;22569;-71
2022/03/24 01:11:11;;;;;;;144.70;56.70;;;;;;;0.35;49.39;99602.72;107424;1284;22550;-70
2022/03/24 01:13:38;;;;;;;152.60;59.00;;;;;;;0.34;49.33;99603.41;107437;1285;22566;-70
2022/03/24 01:16:09;;;;;;;148.60;53.50;;;;;;;0.32;49.43;99600.69;107426;1284;22570;-70
2022/03/24 01:18:37;;;;;;;143.50;56.30;;;;;;;0.31;49.32;99600.70;107207;1285;22733;-70
2022/03/24 01:21:05;;;;;;;152.40;54.70;;;;;;;0.29;49.56;99599.67;107433;1285;22577;-71
2022/03/24 01:23:33;;;;;;;152.60;56.20;;;;;;;0.25;49.48;99591.66;107382;1285;22572;-69
2022/03/24 01:26:02;;;;;;;148.50;55.40;;;;;;;0.24;49.48;99594.23;107736;1284;22569;-73
2022/03/24 01:28:29;;;;;;;139.00;53.50;;;;;;;0.22;49.63;99590.48;107430;1285;22736;-80
2022/03/24 01:30:56;;;;;;;138.70;58.00;;;;;;;0.21;49.80;99586.38;107471;1285;22682;-83
2022/03/24 01:33:23;;;;;;;139.10;55.60;;;;;;;0.18;49.91;99588.27;107420;1285;22580;-72
2022/03/24 01:35:52;;;;;;;163.90;63.10;;;;;;;0.16;50.01;99586.95;107475;1284;25293;-79
2022/03/24 01:38:19;;;;;;;201.70;75.00;;;;;;;0.14;49.94;99584.39;107490;1285;22574;-74
2022/03/24 01:40:46;;;;;;;191.70;75.50;;;;;;;0.13;50.11;99586.11;107472;1284;22557;-70
2022/03/24 01:43:24;;;;;;;198.20;77.70;;;;;;;0.13;50.65;99580.29;104863;1309;545268;-81
2022/03/24 01:45:52;;;;;;;196.00;75.90;;;;;;;0.07;50.38;99583.42;107589;1284;22572;-81
2022/03/24 01:48:20;;;;;;;221.30;82.60;;;;;;;0.00;50.32;99581.59;107546;1284;22590;-81
2022/03/24 01:50:48;;;;;;;239.90;88.50;;;;;;;-0.07;51.30;99577.02;107588;1284;23120;-72
2022/03/24 01:53:15;;;;;;;251.20;86.50;;;;;;;-0.13;51.38;99579.63;107538;1284;22726;-76
2022/03/24 01:55:42;;;;;;;230.30;84.70;;;;;;;-0.18;51.75;99582.92;107335;1286;22633;-86
2022/03/24 01:58:09;;;;;;;229.80;84.50;;;;;;;-0.23;51.41;99585.69;107525;1284;436799;-78
2022/03/24 02:00:36;;;;;;;215.00;79.70;;;;;;;-0.29;51.14;99586.93;107877;1284;22535;-78
2022/03/24 02:03:04;;;;;;;214.70;77.30;;;;;;;-0.33;51.71;99590.20;107837;1284;22541;-76
2022/03/24 02:05:33;;;;;;;217.00;76.80;;;;;;;-0.38;51.20;99588.52;107821;1284;24252;-72
2022/03/24 02:08:03;;;;;;;192.20;74.50;;;;;;;-0.43;51.86;99589.06;107789;1284;22621;-73
2022/03/24 02:10:31;;;;;;;182.30;67.00;;;;;;;-0.48;51.67;99589.61;108030;1284;24322;-85
2022/03/24 02:12:59;;;;;;;182.90;69.10;;;;;;;-0.46;51.47;99594.40;108104;1284;22617;-87
2022/03/24 02:15:27;;;;;;;162.10;62.20;;;;;;;-0.45;52.94;99597.79;108160;1283;26568;-86
2022/03/24 02:17:55;;;;;;;186.80;67.80;;;;;;;-0.44;53.73;99596.25;108153;1284;22544;-86
2022/03/24 02:20:23;;;;;;;192.40;73.30;;;;;;;-0.47;54.37;99603.13;108125;1284;22681;-86
2022/03/24 02:22:51;;;;;;;173.00;68.20;;;;;;;-0.49;53.87;99600.91;108139;1284;24379;-71
2022/03/24 02:25:18;;;;;;;184.90;67.70;;;;;;;-0.52;54.04;99604.34;108102;1284;22555;-70
2022/03/24 02:27:55;;;;;;;206.70;71.90;;;;;;;-0.54;53.31;99610.86;108104;1284;25298;-84
2022/03/24 02:30:24;;;;;;;176.40;68.30;;;;;;;-0.57;54.14;99605.92;108110;1284;22557;-86
2022/03/24 02:32:52;;;;;;;167.30;67.30;;;;;;;-0.61;53.88;99607.64;108106;1284;25360;-82
2022/03/24 02:35:19;;;;;;;166.80;66.00;;;;;;;-0.65;53.69;99608.52;108106;1284;22610;-74
2022/03/24 02:37:47;;;;;;;157.20;65.20;;;;;;;-0.68;53.20;99614.86;108020;1284;22559;-85
2022/03/24 02:40:14;;;;;;;156.40;63.00;;;;;;;-0.71;53.12;99614.01;108107;1283;22617;-85
2022/03/24 02:42:41;;;;;;;156.50;63.10;;;;;;;-0.72;53.08;99616.09;108097;1284;22623;-82
2022/03/24 02:45:10;;;;;;;145.70;59.70;;;;;;;-0.74;53.78;99614.73;108102;1284;25404;-76
2022/03/24 02:47:38;;;;;;;157.20;61.50;;;;;;;-0.75;53.01;99616.27;108121;1284;22546;-86
2022/03/24 02:50:05;;;;;;;154.50;60.90;;;;;;;-0.77;52.95;99615.41;108096;1284;22557;-70
2022/03/24 02:52:32;;;;;;;154.20;62.40;;;;;;;-0.77;53.06;99619.17;108061;1284;22551;-73
2022/03/24 02:54:59;;;;;;;155.40;61.60;;;;;;;-0.78;53.09;99621.23;108074;1284;22700;-71
2022/03/24 02:57:28;;;;;;;166.30;67.20;;;;;;;-0.78;53.17;99621.56;108084;1284;22572;-85
2022/03/24 02:59:55;;;;;;;165.00;67.10;;;;;;;-0.77;53.17;99626.36;108126;1284;22621;-84
2022/03/24 03:02:22;;;;;;;169.40;68.20;;;;;;;-0.76;53.35;99624.14;108087;1284;22537;-85
2022/03/24 03:04:49;;;;;;;175.60;71.70;;;;;;;-0.74;53.27;99627.04;108393;1277;22722;-74
2022/03/24 03:07:17;;;;;;;183.90;73.20;;;;;;;-0.74;53.19;99628.57;108377;1277;22695;-83
2022/03/24 03:09:44;;;;;;;177.70;70.70;;;;;;;-0.73;53.46;99629.09;108399;1277;22544;-82
2022/03/24 03:12:11;;;;;;;165.10;69.60;;;;;;;-0.73;53.26;99633.02;108389;1277;25267;-70
2022/03/24 03:14:40;;;;;;;153.70;61.40;;;;;;;-0.72;53.13;99636.09;108373;1277;22544;-71
2022/03/24 03:17:09;;;;;;;139.30;57.90;;;;;;;-0.73;53.19;99635.76;108410;1277;22617;-73
2022/03/24 03:19:36;;;;;;;138.60;56.70;;;;;;;-0.73;53.05;99638.66;108411;1276;22556;-79
2022/03/24 03:22:04;;;;;;;133.20;54.70;;;;;;;-0.75;53.26;99643.80;108415;1277;22661;-70
2022/03/24 03:24:31;;;;;;;132.20;52.90;;;;;;;-0.76;53.19;99645.34;108385;1277;22483;-86
2022/03/24 03:26:59;;;;;;;157.30;59.20;;;;;;;-0.77;53.23;99646.88;108396;1277;22573;-85
2022/03/24 03:29:26;;;;;;;147.10;57.40;;;;;;;-0.78;53.25;99646.55;108409;1277;22610;-70
2022/03/24 03:31:54;;;;;;;122.00;46.70;;;;;;;-0.79;53.30;99646.20;108404;1277;22632;-71
2022/03/24 03:34:24;;;;;;;115.30;43.80;;;;;;;-0.80;53.67;99652.35;108385;1277;22717;-87
2022/03/24 03:36:53;;;;;;;105.50;41.70;;;;;;;-0.78;54.06;99646.38;108361;1277;22553;-79
2022/03/24 03:39:22;;;;;;;100.20;40.40;;;;;;;-0.76;54.27;99652.70;108396;1278;22604;-83
2022/03/24 03:41:49;;;;;;;90.70;37.40;;;;;;;-0.69;54.00;99651.99;108398;1277;22567;-75
2022/03/24 03:44:16;;;;;;;84.50;35.20;;;;;;;-0.60;53.57;99651.27;108409;1277;22908;-85
2022/03/24 03:46:44;;;;;;;72.10;30.70;;;;;;;-0.52;53.94;99649.52;108418;1277;22556;-85
2022/03/24 03:49:12;;;;;;;74.10;32.10;;;;;;;-0.44;53.63;99649.48;108424;1277;22531;-85
2022/03/24 03:51:39;;;;;;;67.30;30.50;;;;;;;-0.36;53.32;99655.26;108395;1277;22566;-83
2022/03/24 03:54:07;;;;;;;80.00;33.00;;;;;;;-0.27;53.43;99657.27;108400;1277;22518;-84
2022/03/24 03:56:36;;;;;;;93.40;36.20;;;;;;;-0.16;53.34;99657.03;108453;1277;25261;-84
2022/03/24 03:59:04;;;;;;;72.60;30.60;;;;;;;-0.04;53.56;99659.02;108428;1277;22529;-77
2022/03/24 04:01:31;;;;;;;67.80;30.90;;;;;;;0.10;53.55;99664.06;108399;1277;22610;-79
2022/03/24 04:03:59;;;;;;;87.10;35.80;;;;;;;0.25;53.61;99663.96;108399;1277;22548;-77
2022/03/24 04:06:26;;;;;;;75.20;33.90;;;;;;;0.37;53.34;99660.10;108416;1278;22541;-71
2022/03/24 04:08:53;;;;;;;84.60;37.30;;;;;;;0.46;53.45;99663.97;108418;1277;22611;-85
2022/03/24 04:11:20;;;;;;;77.90;36.00;;;;;;;0.49;53.43;99665.48;108414;1277;22559;-85
2022/03/24 04:13:48;;;;;;;83.00;35.30;;;;;;;0.48;53.80;99666.00;108416;1277;22540;-84
2022/03/24 04:16:15;;;;;;;85.50;35.50;;;;;;;0.46;54.00;99666.20;108415;1277;23293;-84
2022/03/24 04:18:46;;;;;;;68.50;32.30;;;;;;;0.42;53.96;99666.07;108397;1277;22816;-86
2022/03/24 04:21:13;;;;;;;68.60;32.10;;;;;;;0.36;53.46;99660.61;108412;1276;22533;-85
2022/03/24 04:23:42;;;;;;;72.80;33.70;;;;;;;0.32;54.16;99665.45;108402;1277;22655;-86
2022/03/24 04:26:11;;;;;;;69.40;33.50;;;;;;;0.26;54.16;99667.89;108438;1277;22601;-74
2022/03/24 04:28:40;;;;;;;78.90;34.30;;;;;;;0.21;53.84;99672.89;108422;1277;22541;-78
2022/03/24 04:31:07;;;;;;;78.10;35.40;;;;;;;0.17;54.03;99673.45;108436;1277;22553;-86
2022/03/24 04:33:34;;;;;;;95.80;41.00;;;;;;;0.12;53.92;99670.38;108403;1277;22704;-70
2022/03/24 04:36:02;;;;;;;79.80;35.40;;;;;;;0.09;53.75;99674.17;108452;1277;22598;-83
2022/03/24 04:38:29;;;;;;;104.90;45.10;;;;;;;0.05;53.08;99676.43;108411;1277;22535;-72
2022/03/24 04:40:56;;;;;;;93.60;38.90;;;;;;;0.01;53.00;99676.80;108423;1277;22519;-83
2022/03/24 04:43:24;;;;;;;87.50;39.00;;;;;;;-0.01;53.26;99681.96;108430;1277;22564;-69
2022/03/24 04:45:51;;;;;;;89.50;38.30;;;;;;;-0.04;53.10;99681.45;108451;1277;22556;-81
2022/03/24 04:48:18;;;;;;;81.10;40.00;;;;;;;-0.06;53.40;99683.17;108510;1277;22560;-87
2022/03/24 04:50:45;;;;;;;72.60;33.50;;;;;;;-0.08;54.32;99682.83;108460;1277;22550;-87
2022/03/24 04:53:15;;;;;;;85.80;37.00;;;;;;;-0.09;54.66;99684.73;108443;1277;22603;-87
2022/03/24 04:55:44;;;;;;;76.40;35.50;;;;;;;-0.11;54.06;99685.10;108381;1277;22558;-84
2022/03/24 04:58:12;;;;;;;81.60;35.30;;;;;;;-0.10;54.64;99683.20;108455;1277;22573;-85
2022/03/24 05:00:39;;;;;;;75.90;33.30;;;;;;;-0.09;54.78;99680.79;108458;1277;22616;-86
2022/03/24 05:03:06;;;;;;;72.30;34.80;;;;;;;-0.07;54.84;99680.43;108431;1277;22632;-85
2022/03/24 05:05:34;;;;;;;57.60;29.20;;;;;;;-0.05;54.92;99680.60;108446;1277;22608;-85
2022/03/24 05:08:02;;;;;;;62.30;30.80;;;;;;;-0.02;54.90;99677.86;108427;1277;22553;-82
2022/03/24 05:10:30;;;;;;;66.40;31.80;;;;;;;0.03;54.37;99679.36;108255;1277;22611;-79
2022/03/24 05:12:57;;;;;;;61.60;30.80;;;;;;;0.08;54.35;99678.98;108177;1277;24376;-80
2022/03/24 05:15:24;;;;;;;70.90;34.40;;;;;;;0.16;54.27;99676.20;108180;1277;25428;-75
2022/03/24 05:17:52;;;;;;;79.20;32.10;;;;;;;0.27;54.12;99683.65;108160;1276;22548;-84
2022/03/24 05:20:19;;;;;;;107.20;45.10;;;;;;;0.40;54.57;99686.46;108172;1277;22716;-77
2022/03/24 05:22:46;;;;;;;96.30;44.20;;;;;;;0.57;53.97;99689.93;108156;1277;22711;-70
2022/03/24 05:25:14;;;;;;;104.10;44.00;;;;;;;0.74;53.98;99691.34;108175;1277;22558;-81
2022/03/24 05:27:41;;;;;;;119.80;49.10;;;;;;;0.93;54.25;99691.33;108161;1277;22567;-74
2022/03/24 05:30:09;;;;;;;237.80;78.40;;;;;;;1.14;54.39;99688.55;108188;1277;22561;-75
2022/03/24 05:32:40;;;;;;;345.80;100.60;;;;;;;1.39;54.56;99685.00;108192;1276;22622;-70
2022/03/24 05:35:17;;;;;;;299.40;87.80;;;;;;;1.71;54.58;99688.05;108165;1277;22551;-82
2022/03/24 05:37:44;;;;;;;227.10;75.20;;;;;;;2.00;54.62;99690.93;108193;1277;22540;-70
2022/03/24 05:40:12;;;;;;;235.30;72.10;;;;;;;2.27;54.75;99694.66;108168;1277;22548;-71
2022/03/24 05:42:39;;;;;;;234.80;73.00;;;;;;;2.54;54.76;99693.39;108397;1271;22589;-77
2022/03/24 05:45:07;;;;;;;139.10;54.70;;;;;;;2.85;54.51;99694.94;108344;1271;22575;-71
2022/03/24 05:47:33;;;;;;;104.40;45.70;;;;;;;3.22;54.35;99697.87;108343;1271;22559;-79
2022/03/24 05:50:01;;;;;;;104.60;49.00;;;;;;;3.52;53.94;99696.96;108344;1271;22697;-76
2022/03/24 05:52:28;;;;;;;109.50;48.20;;;;;;;3.84;53.43;99699.08;108355;1271;24367;-71
2022/03/24 05:54:55;;;;;;;85.30;41.70;;;;;;;4.18;52.68;99702.27;108337;1271;23123;-81
2022/03/24 05:57:23;;;;;;;95.10;45.50;;;;;;;4.43;52.41;99704.64;108362;1271;22598;-86
2022/03/24 05:59:50;;;;;;;101.50;46.70;;;;;;;4.62;51.80;99703.52;108337;1271;22552;-70
2022/03/24 06:02:20;;;;;;;112.20;46.90;;;;;;;4.73;51.32;99705.49;108350;1271;22737;-77
2022/03/24 06:04:48;;;;;;;110.00;45.00;;;;;;;4.74;50.47;99705.27;108343;1271;24259;-73
2022/03/24 06:07:17;;;;;;;119.80;46.00;;;;;;;4.71;50.02;99706.04;108331;1271;25241;-71
2022/03/24 06:09:48;;;;;;;293.60;97.90;;;;;;;4.69;49.74;99706.95;108332;1271;22704;-75
2022/03/24 06:12:15;;;;;;;163.00;58.00;;;;;;;4.67;49.40;99709.58;108389;1271;22570;-86
2022/03/24 06:14:43;;;;;;;140.70;52.60;;;;;;;4.69;49.48;99706.61;108340;1271;22528;-70
2022/03/24 06:17:10;;;;;;;128.00;47.00;;;;;;;4.70;49.20;99707.96;108325;1271;22560;-76
2022/03/24 06:19:38;;;;;;;155.30;55.10;;;;;;;4.71;48.78;99708.64;108353;1271;26762;-77
2022/03/24 06:22:06;;;;;;;142.30;53.20;;;;;;;4.71;48.82;99706.56;108408;1271;22546;-77
2022/03/24 06:24:34;;;;;;;118.60;43.10;;;;;;;4.70;48.52;99707.27;108362;1271;24249;-70
2022/03/24 06:27:01;;;;;;;116.10;45.50;;;;;;;4.72;48.23;99706.55;108345;1271;22554;-74
2022/03/24 06:29:28;;;;;;;123.20;43.00;;;;;;;4.76;48.21;99706.07;108325;1271;22561;-70
2022/03/24 06:31:56;;;;;;;102.90;39.60;;;;;;;4.80;48.13;99705.29;108386;1271;22656;-70
2022/03/24 06:34:25;;;;;;;87.10;36.50;;;;;;;4.86;47.91;99706.69;108331;1271;22617;-73
2022/03/24 06:36:54;;;;;;;90.30;36.40;;;;;;;4.91;47.77;99713.84;108347;1271;22733;-75
2022/03/24 06:39:23;;;;;;;79.20;35.60;;;;;;;4.97;47.87;99721.45;108442;1271;22551;-73
2022/03/24 06:41:50;;;;;;;67.70;32.00;;;;;;;5.03;47.51;99722.16;108354;1271;22605;-84
2022/03/24 06:44:18;;;;;;;56.30;26.10;;;;;;;5.07;47.66;99722.24;108339;1271;22557;-78
2022/03/24 06:46:45;;;;;;;71.80;33.40;;;;;;;5.16;47.38;99723.73;108590;1271;22574;-88
2022/03/24 06:49:12;;;;;;;64.90;31.90;;;;;;;5.22;46.93;99727.52;108327;1271;22696;-78
2022/03/24 06:51:39;;;;;;;71.40;35.20;;;;;;;5.33;47.18;99728.98;108339;1271;22553;-76
2022/03/24 06:54:07;;;;;;;81.90;38.00;;;;;;;5.42;46.87;99728.37;108356;1270;22534;-76
2022/03/24 06:56:34;;;;;;;65.20;31.90;;;;;;;5.53;46.58;99728.77;108357;1271;24111;-71
2022/03/24 06:59:02;;;;;;;72.80;36.70;;;;;;;5.62;46.27;99728.16;108386;1271;25384;-80
2022/03/24 07:01:29;;;;;;;64.30;32.10;;;;;;;5.73;46.32;99732.54;108331;1270;22540;-70
2022/03/24 07:03:55;;;;;;;58.90;32.50;;;;;;;5.82;45.88;99733.14;108325;1271;22535;-73
2022/03/24 07:06:23;;;;;;;62.60;30.80;;;;;;;5.91;45.87;99738.61;108361;1271;22537;-69
2022/03/24 07:08:49;;;;;;;74.20;33.70;;;;;;;6.00;45.75;99735.08;108374;1271;22710;-70
2022/03/24 07:11:16;;;;;;;61.90;31.00;;;;;;;6.08;45.49;99735.52;108379;1271;22538;-69
2022/03/24 07:13:43;;;;;;;59.10;32.80;;;;;;;6.15;45.51;99737.23;108379;1271;24466;-70
2022/03/24 07:16:10;;;;;;;57.40;29.80;;;;;;;6.22;45.40;99743.58;108398;1271;22554;-70
2022/03/24 07:18:37;;;;;;;66.90;31.60;;;;;;;6.32;45.24;99744.67;108403;1271;22594;-73
2022/03/24 07:21:05;;;;;;;61.00;31.00;;;;;;;6.40;44.99;99739.92;108423;1271;22603;-70
2022/03/24 07:23:32;;;;;;;65.40;34.60;;;;;;;6.51;44.83;99742.70;108411;1271;22720;-70
2022/03/24 07:25:59;;;;;;;65.40;34.10;;;;;;;6.61;44.60;99738.07;108371;1271;22548;-69
2022/03/24 07:28:26;;;;;;;64.00;32.10;;;;;;;6.69;44.70;99734.51;108356;1271;22543;-69
2022/03/24 07:30:53;;;;;;;60.00;30.40;;;;;;;6.78;44.41;99739.43;108351;1271;22547;-70
2022/03/24 07:33:20;;;;;;;61.10;34.10;;;;;;;6.88;44.33;99742.74;108340;1270;22528;-73
2022/03/24 07:35:48;;;;;;;71.10;36.80;;;;;;;6.96;44.21;99740.95;108379;1269;22543;-70
2022/03/24 07:38:16;;;;;;;67.90;35.20;;;;;;;7.04;44.05;99742.54;108421;1271;22734;-70
2022/03/24 07:40:43;;;;;;;65.90;32.90;;;;;;;7.12;43.85;99745.40;108435;1269;22569;-71
2022/03/24 07:43:10;;;;;;;66.80;32.30;;;;;;;7.21;43.84;99741.45;108378;1270;22705;-72
2022/03/24 07:45:38;;;;;;;64.30;32.90;;;;;;;7.31;43.62;99741.80;108345;1271;24262;-70
2022/03/24 07:48:15;;;;;;;72.40;34.70;;;;;;;7.42;43.32;99740.71;108359;1271;22544;-71
2022/03/24 07:50:45;;;;;;;81.90;34.00;;;;;;;7.51;43.13;99737.98;108377;1271;22528;-71
2022/03/24 07:53:12;;;;;;;69.80;33.90;;;;;;;7.61;43.23;99739.04;108369;1271;24338;-71
2022/03/24 07:55:42;;;;;;;70.40;33.10;;;;;;;7.71;43.16;99737.61;108369;1271;22563;-71
2022/03/24 07:58:10;;;;;;;60.60;33.60;;;;;;;7.83;42.87;99734.92;108364;1271;22534;-72
2022/03/24 08:00:38;;;;;;;63.10;32.90;;;;;;;7.96;42.97;99732.03;108783;1270;22526;-69
2022/03/24 08:03:13;;;;;;;52.60;31.00;;;;;;;8.10;42.75;99733.77;108360;1271;22606;-69
2022/03/24 08:05:42;;;;;;;65.90;32.40;;;;;;;8.25;42.62;99731.44;108890;1271;22560;-69
2022/03/24 08:08:09;;;;;;;61.50;34.10;;;;;;;8.39;42.46;99735.81;108330;1271;22633;-69
2022/03/24 08:10:38;;;;;;;63.80;33.10;;;;;;;8.49;42.21;99737.64;108356;1271;22528;-72
2022/03/24 08:13:05;;;;;;;60.00;31.20;;;;;;;8.60;41.94;99732.71;108359;1271;25388;-72
2022/03/24 08:15:32;;;;;;;61.10;31.40;;;;;;;8.71;41.61;99730.52;108365;1271;22696;-70
2022/03/24 08:17:59;;;;;;;58.60;32.70;;;;;;;8.82;41.60;99731.13;108361;1271;22531;-70
2022/03/24 08:20:26;;;;;;;54.60;30.50;;;;;;;8.95;41.35;99734.06;108353;1271;22559;-71
2022/03/24 08:22:53;;;;;;;50.30;28.20;;;;;;;9.06;40.51;99736.04;108363;1271;22568;-75
2022/03/24 08:25:20;;;;;;;49.30;28.00;;;;;;;9.17;40.23;99735.73;108347;1271;22568;-72
2022/03/24 08:27:47;;;;;;;54.10;31.10;;;;;;;9.29;40.47;99736.45;108539;1271;22548;-76
2022/03/24 08:30:15;;;;;;;57.60;30.70;;;;;;;9.42;39.70;99738.52;108577;1271;22548;-75
2022/03/24 08:32:42;;;;;;;63.10;31.40;;;;;;;9.55;40.00;99738.30;108441;1271;24234;-79
2022/03/24 08:35:10;;;;;;;48.90;28.20;;;;;;;9.66;39.66;99739.36;108476;1270;22564;-72
2022/03/24 08:37:37;;;;;;;53.40;30.90;;;;;;;9.79;39.18;99736.21;108514;1271;22691;-72
2022/03/24 08:40:06;;;;;;;53.50;28.80;;;;;;;9.90;39.42;99735.36;108485;1271;22860;-72
2022/03/24 08:42:37;;;;;;;63.10;29.80;;;;;;;9.96;38.62;99738.70;108505;1268;22531;-72
2022/03/24 08:45:09;;;;;;;50.60;29.10;;;;;;;10.01;38.80;99736.92;108541;1270;22521;-91
2022/03/24 08:47:36;;;;;;;49.80;29.90;;;;;;;10.09;39.03;99739.33;108556;1271;22528;-76
2022/03/24 08:50:06;;;;;;;52.30;29.00;;;;;;;10.18;38.70;99738.60;108536;1271;22561;-72
2022/03/24 08:52:35;;;;;;;45.90;27.30;;;;;;;10.28;38.72;99743.20;108580;1271;22620;-72
2022/03/24 08:55:05;;;;;;;49.60;29.60;;;;;;;10.38;38.32;99743.80;108635;1271;24218;-92
2022/03/24 08:57:34;;;;;;;50.40;30.20;;;;;;;10.44;37.92;99746.81;108586;1271;22528;-72
2022/03/24 09:00:12;;;;;;;50.20;29.60;;;;;;;10.48;37.99;99745.38;108604;1271;22571;-79
2022/03/24 09:02:48;;;;;;;48.10;26.60;;;;;;;10.57;38.17;99750.54;108573;1271;22808;-93
2022/03/24 09:05:16;;;;;;;51.40;29.40;;;;;;;10.66;37.38;99746.11;108593;1271;22532;-82
2022/03/24 09:07:43;;;;;;;63.80;30.10;;;;;;;10.69;36.92;99745.80;108566;1271;22544;-76
2022/03/24 09:10:12;;;;;;;51.40;28.40;;;;;;;10.72;37.12;99744.45;108532;1271;25449;-83
2022/03/24 09:12:44;;;;;;;40.20;23.50;;;;;;;10.75;36.83;99746.55;108566;1270;22538;-87
2022/03/24 09:15:13;;;;;;;49.10;25.30;;;;;;;10.77;35.43;99748.02;108538;1271;22614;-79
2022/03/24 09:17:42;;;;;;;43.30;26.60;;;;;;;10.78;35.15;99745.67;108536;1271;22544;-76
2022/03/24 09:20:12;;;;;;;50.30;27.90;;;;;;;10.87;35.31;99751.88;108558;1271;22537;-71
2022/03/24 09:22:44;;;;;;;44.80;27.00;;;;;;;10.94;35.59;99751.72;108602;1271;22528;-83
2022/03/24 09:25:14;;;;;;;43.00;24.30;;;;;;;11.00;35.51;99750.41;108566;1271;22614;-80
2022/03/24 09:27:45;;;;;;;48.00;27.30;;;;;;;11.04;35.29;99748.77;108558;1271;24222;-71
2022/03/24 09:30:14;;;;;;;47.80;25.40;;;;;;;11.08;34.81;99750.18;108563;1271;22637;-71
2022/03/24 09:32:42;;;;;;;49.70;28.90;;;;;;;11.12;34.26;99750.45;108586;1271;25363;-72
2022/03/24 09:35:10;;;;;;;51.70;29.70;;;;;;;11.14;34.52;99747.57;108547;1271;22632;-90
2022/03/24 09:37:37;;;;;;;44.20;26.80;;;;;;;11.18;34.65;99750.33;108538;1270;22543;-81
2022/03/24 09:40:11;;;;;;;51.80;25.90;;;;;;;11.22;34.55;99746.30;108533;1271;22570;-91
2022/03/24 09:42:39;;;;;;;43.90;26.10;;;;;;;11.25;34.67;99749.48;108563;1271;22618;-71
2022/03/24 09:45:09;;;;;;;46.00;25.50;;;;;;;11.30;34.72;99744.86;108562;1271;22703;-72
2022/03/24 09:47:36;;;;;;;32.80;20.60;;;;;;;11.37;34.35;99745.04;108620;1271;22643;-88
2022/03/24 09:50:04;;;;;;;31.20;17.90;;;;;;;11.45;33.12;99752.80;108549;1271;22642;-92
2022/03/24 09:52:31;;;;;;;27.90;16.50;;;;;;;11.53;33.05;99745.43;108591;1271;22613;-91
2022/03/24 09:54:58;;;;;;;29.00;16.90;;;;;;;11.59;33.00;99747.39;108601;1271;22847;-85
2022/03/24 09:57:25;;;;;;;34.60;17.90;;;;;;;11.67;32.38;99749.21;108556;1271;22583;-84
2022/03/24 09:59:52;;;;;;;26.40;15.60;;;;;;;11.75;31.90;99750.73;108526;1271;22528;-78
2022/03/24 10:02:20;;;;;;;23.90;15.00;;;;;;;11.82;32.30;99748.09;108572;1271;22525;-95
2022/03/24 10:04:54;;;;;;;32.00;18.60;;;;;;;11.91;31.33;99742.75;108568;1271;22554;-93
2022/03/24 10:07:25;;;;;;;32.90;20.20;;;;;;;11.97;31.50;99743.45;108567;1271;22687;-71
2022/03/24 10:09:55;;;;;;;31.70;19.90;;;;;;;12.04;31.60;99746.26;108584;1271;22710;-83
2022/03/24 10:12:36;;;;;;;29.20;17.60;;;;;;;12.11;31.29;99745.33;108569;1271;22613;-71
2022/03/24 10:15:11;;;;;;;26.50;14.40;;;;;;;12.16;31.03;99741.61;108593;1271;22529;-88
2022/03/24 10:17:40;;;;;;;28.30;16.30;;;;;;;12.25;30.63;99741.41;108584;1271;22612;-86
2022/03/24 10:20:14;;;;;;;27.20;15.80;;;;;;;12.38;30.97;99746.16;108586;1270;22540;-85
2022/03/24 10:23:05;;;;;;;24.00;13.80;;;;;;;12.49;30.35;99744.13;108545;1270;22535;-76
2022/03/24 10:25:38;;;;;;;20.60;12.10;;;;;;;12.54;30.59;99743.30;108559;1271;22699;-71
2022/03/24 10:28:10;;;;;;;21.90;13.50;;;;;;;12.58;28.39;99747.32;108574;1271;22616;-75
2022/03/24 10:30:55;;;;;;;29.80;16.80;;;;;;;12.59;29.30;99740.45;108533;1271;22539;-75
2022/03/24 10:33:27;;;;;;;26.90;16.70;;;;;;;12.62;29.90;99739.54;108534;1272;22537;-95
2022/03/24 10:36:09;;;;;;;30.70;17.30;;;;;;;12.67;29.90;99737.35;108604;1271;22694;-84
2022/03/24 10:38:42;;;;;;;31.90;18.20;;;;;;;12.73;29.83;99732.98;108588;1271;25309;-86
2022/03/24 10:41:17;;;;;;;27.20;17.60;;;;;;;12.79;29.71;99735.06;108606;1271;22542;-88
2022/03/24 10:43:46;;;;;;;29.10;16.80;;;;;;;12.87;29.58;99733.26;108577;1271;24221;-71
2022/03/24 10:46:18;;;;;;;38.60;23.00;;;;;;;12.93;29.78;99731.48;108608;1271;24414;-85
2022/03/24 10:48:47;;;;;;;73.00;39.80;;;;;;;12.96;29.62;99731.51;108594;1271;22649;-77
2022/03/24 10:51:25;;;;;;;41.50;25.50;;;;;;;12.93;29.35;99725.75;108569;1270;22697;-89
2022/03/24 10:54:03;;;;;;;28.50;17.20;;;;;;;12.95;29.51;99724.95;108565;1271;22547;-80
2022/03/24 10:56:37;;;;;;;32.30;17.70;;;;;;;12.93;29.55;99725.35;108579;1271;22532;-95
2022/03/24 10:59:05;;;;;;;33.10;22.10;;;;;;;12.97;29.52;99724.44;108551;1270;22548;-94
2022/03/24 11:01:33;;;;;;;30.20;17.20;;;;;;;13.03;29.08;99724.27;108617;1271;22534;-85
2022/03/24 11:04:00;;;;;;;26.50;16.30;;;;;;;13.11;29.33;99724.49;108562;1271;22633;-82
2022/03/24 11:06:27;;;;;;;34.20;18.90;;;;;;;13.15;29.22;99723.58;108567;1271;25914;-87
2022/03/24 11:08:58;;;;;;;37.40;21.80;;;;;;;13.20;28.90;99718.25;108578;1270;22556;-82
2022/03/24 11:11:26;;;;;;;27.90;17.50;;;;;;;13.18;28.96;99714.17;108599;1270;22557;-81
2022/03/24 11:14:02;;;;;;;28.60;17.40;;;;;;;13.20;28.40;99710.59;108568;1271;25236;-78